Time;durP1;ratioP1;P1;durP2;ratioP2;P2;SDS_P1;SDS_P2;PMS_P1;PMS_P2;Temp;Humidity;BMP_temperature;BMP_pressure;BME280_temperature;BME280_humidity;BME280_pressure;Samples;Min_cycle;Max_cycle;Signal;HPM_P1;HPM_P2
2023/02/28 00:00:51;;;;;;;8.30;5.20;;;;;;;0.48;54.72;101714.23;108039;1256;74139;-65
2023/02/28 00:03:20;;;;;;;8.90;5.30;;;;;;;0.45;54.72;101715.70;108024;1256;71257;-63
2023/02/28 00:05:48;;;;;;;11.30;6.20;;;;;;;0.41;54.57;101714.02;108043;1255;72084;-65
2023/02/28 00:08:17;;;;;;;7.40;4.70;;;;;;;0.40;54.60;101716.98;108009;1256;61170;-65
2023/02/28 00:10:46;;;;;;;8.90;5.40;;;;;;;0.51;54.50;101717.75;108048;1255;61245;-64
2023/02/28 00:13:18;;;;;;;8.10;5.10;;;;;;;0.61;54.31;101718.26;108033;1256;72293;-64
2023/02/28 00:15:46;;;;;;;8.00;5.00;;;;;;;0.63;54.11;101719.25;108059;1256;71965;-64
2023/02/28 00:18:15;;;;;;;8.50;5.50;;;;;;;0.62;54.16;101722.97;108019;1255;71919;-63
2023/02/28 00:20:46;;;;;;;7.50;5.10;;;;;;;0.51;54.29;101725.58;107985;1256;61257;-66
2023/02/28 00:23:15;;;;;;;7.50;5.20;;;;;;;0.48;54.37;101726.27;108015;1256;60461;-65
2023/02/28 00:25:43;;;;;;;8.60;5.10;;;;;;;0.46;54.36;101729.25;107933;1256;74127;-63
2023/02/28 00:28:12;;;;;;;8.30;5.20;;;;;;;0.45;54.16;101729.41;108057;1255;71528;-64
2023/02/28 00:30:41;;;;;;;7.90;5.10;;;;;;;0.48;54.07;101724.71;107996;1259;71802;-65
2023/02/28 00:33:10;;;;;;;8.70;5.10;;;;;;;0.38;54.16;101725.59;108022;1256;61720;-65
2023/02/28 00:35:38;;;;;;;7.90;5.20;;;;;;;0.34;54.35;101727.25;108013;1256;60509;-66
2023/02/28 00:38:09;;;;;;;10.60;5.80;;;;;;;0.30;54.34;101728.33;107892;1256;75093;-63
2023/02/28 00:40:37;;;;;;;9.80;6.00;;;;;;;0.29;54.58;101724.38;108011;1256;73988;-64
2023/02/28 00:43:06;;;;;;;9.70;6.50;;;;;;;0.28;54.63;101720.54;108020;1259;72720;-64
2023/02/28 00:45:34;;;;;;;9.70;5.90;;;;;;;0.25;54.55;101711.73;108013;1256;62665;-64
2023/02/28 00:48:06;;;;;;;;;;;;;;;0.23;54.80;101713.64;108052;1256;61145;-64
2023/02/28 00:50:35;;;;;;;8.70;5.10;;;;;;;0.21;54.64;101718.35;108060;1255;74238;-64
2023/02/28 00:53:06;;;;;;;9.50;5.30;;;;;;;0.21;54.83;101722.75;107985;1256;74005;-64
2023/02/28 00:55:35;;;;;;;9.70;5.80;;;;;;;0.21;55.03;101719.77;107987;1256;73185;-64
2023/02/28 00:58:05;;;;;;;10.70;5.80;;;;;;;0.22;54.93;101719.10;107710;1256;61152;-64
2023/02/28 01:00:33;;;;;;;9.50;6.00;;;;;;;0.23;54.70;101718.02;107899;1256;61076;-65
2023/02/28 01:03:02;;;;;;;11.90;7.00;;;;;;;0.24;54.66;101719.84;107949;1256;74944;-65
2023/02/28 01:05:30;;;;;;;12.10;7.30;;;;;;;0.27;54.76;101721.84;107940;1256;73333;-64
2023/02/28 01:07:59;;;;;;;9.00;5.30;;;;;;;0.28;54.54;101718.92;107937;1256;73035;-64
2023/02/28 01:10:31;;;;;;;8.50;5.10;;;;;;;0.25;54.48;101720.06;107938;1256;61326;-64
2023/02/28 01:12:59;;;;;;;9.80;4.90;;;;;;;0.22;54.57;101721.63;107731;1256;61099;-64
2023/02/28 01:15:28;;;;;;;7.00;4.10;;;;;;;0.19;54.57;101729.08;107970;1256;75809;-63
2023/02/28 01:17:57;;;;;;;10.10;4.40;;;;;;;0.19;54.45;101729.67;107929;1256;73072;-64
2023/02/28 01:20:25;;;;;;;8.70;4.50;;;;;;;0.19;54.67;101730.48;107943;1256;71752;-63
2023/02/28 01:22:53;;;;;;;6.30;3.90;;;;;;;0.18;54.65;101727.27;107923;1255;61233;-64
2023/02/28 01:25:23;;;;;;;7.50;4.50;;;;;;;0.16;54.77;101734.68;107964;1256;61101;-64
2023/02/28 01:27:53;;;;;;;7.40;4.00;;;;;;;0.16;54.63;101735.56;107954;1256;74563;-64
2023/02/28 01:30:22;;;;;;;7.90;4.40;;;;;;;0.17;54.89;101734.26;107746;1256;70800;-64
2023/02/28 01:32:53;;;;;;;7.70;4.50;;;;;;;0.15;54.62;101734.23;107944;1256;71783;-64
2023/02/28 01:35:21;;;;;;;6.20;3.70;;;;;;;0.15;54.64;101734.78;107909;1255;60025;-65
2023/02/28 01:37:50;;;;;;;6.70;3.90;;;;;;;0.15;54.62;101733.93;107889;1256;61328;-65
2023/02/28 01:40:19;;;;;;;8.80;4.30;;;;;;;0.14;54.54;101736.52;107722;1256;73738;-64
2023/02/28 01:42:49;;;;;;;6.70;3.80;;;;;;;0.23;54.21;101741.34;107741;1256;74051;-65
2023/02/28 01:45:26;;;;;;;8.10;4.40;;;;;;;0.21;54.06;101739.04;107922;1260;71770;-64
2023/02/28 01:47:58;;;;;;;8.70;4.70;;;;;;;0.11;54.25;101740.66;107770;1256;62908;-64
2023/02/28 01:50:27;;;;;;;;;;;;;;;0.17;54.35;101738.23;107827;1259;61127;-64
2023/02/28 01:52:56;;;;;;;7.60;4.50;;;;;;;0.10;54.62;101736.90;107975;1256;75881;-64
2023/02/28 01:55:28;;;;;;;7.30;4.60;;;;;;;0.08;54.67;101739.20;107952;1257;72347;-64
2023/02/28 01:58:01;;;;;;;7.10;4.70;;;;;;;0.18;54.39;101741.27;107999;1255;72839;-65
2023/02/28 02:00:31;;;;;;;7.90;5.20;;;;;;;0.22;54.39;101740.85;107964;1254;61352;-65
2023/02/28 02:03:11;;;;;;;9.00;5.40;;;;;;;0.23;54.19;101738.15;107997;1256;61137;-64
2023/02/28 02:05:40;;;;;;;7.50;4.70;;;;;;;0.25;54.47;101745.33;107998;1257;74853;-64
2023/02/28 02:08:11;;;;;;;8.60;5.10;;;;;;;0.26;54.46;101745.45;108019;1256;73715;-65
2023/02/28 02:10:42;;;;;;;7.80;4.70;;;;;;;0.29;54.50;101745.50;107947;1256;72050;-64
2023/02/28 02:13:17;;;;;;;7.40;4.60;;;;;;;0.32;54.50;101746.89;107793;1256;60572;-64
2023/02/28 02:16:06;;;;;;;6.90;4.20;;;;;;;0.27;54.35;101751.73;107951;1256;61123;-64
2023/02/28 02:18:46;;;;;;;7.50;4.40;;;;;;;0.14;54.40;101745.07;107745;1256;73738;-65
2023/02/28 02:21:23;;;;;;;8.90;4.60;;;;;;;0.12;54.39;101749.42;107780;1256;73758;-64
2023/02/28 02:24:02;;;;;;;8.60;4.50;;;;;;;0.18;54.28;101751.31;107970;1256;74049;-64
2023/02/28 02:26:48;;;;;;;9.00;4.50;;;;;;;0.15;54.08;101750.39;107960;1256;63030;-64
2023/02/28 02:29:55;;;;;;;7.90;4.60;;;;;;;0.06;54.30;101753.04;107916;1256;61557;-64
2023/02/28 02:32:46;;;;;;;9.00;4.60;;;;;;;0.05;54.62;101752.67;107755;1256;74816;-65
2023/02/28 02:35:29;;;;;;;8.40;5.00;;;;;;;0.06;54.52;101756.39;107953;1256;73585;-64
2023/02/28 02:38:09;;;;;;;7.00;4.30;;;;;;;0.08;54.77;101760.28;107953;1256;72463;-66
2023/02/28 02:40:57;;;;;;;8.40;5.10;;;;;;;0.10;54.57;101757.89;107949;1256;61187;-64
2023/02/28 02:43:30;;;;;;;7.90;4.60;;;;;;;0.11;54.65;101760.77;107944;1259;61165;-64
2023/02/28 02:46:12;;;;;;;6.30;4.30;;;;;;;0.16;54.52;101764.45;107947;1256;76198;-65
2023/02/28 02:48:40;;;;;;;8.10;4.70;;;;;;;0.21;54.07;101762.17;107941;1259;73266;-65
2023/02/28 02:51:17;;;;;;;7.50;4.30;;;;;;;0.19;54.25;101762.35;107727;1261;72882;-64
2023/02/28 02:53:51;;;;;;;7.60;4.30;;;;;;;0.06;54.41;101768.19;107868;1256;61330;-63
2023/02/28 02:56:21;;;;;;;9.00;4.40;;;;;;;-0.03;54.56;101773.04;107964;1256;59572;-64
2023/02/28 02:58:50;;;;;;;7.90;4.60;;;;;;;-0.05;54.64;101777.69;107797;1256;74996;-64
2023/02/28 03:01:27;;;;;;;8.10;5.10;;;;;;;0.05;54.53;101777.57;107770;1255;72861;-65
2023/02/28 03:03:59;;;;;;;8.40;4.90;;;;;;;0.09;54.51;101781.67;107943;1256;71566;-65
2023/02/28 03:06:27;;;;;;;7.40;4.20;;;;;;;0.11;54.52;101776.31;107745;1256;62469;-64
2023/02/28 03:08:57;;;;;;;8.40;5.40;;;;;;;0.06;54.83;101780.27;107804;1256;61002;-65
2023/02/28 03:11:25;;;;;;;8.60;4.60;;;;;;;0.03;54.61;101778.79;107970;1256;74121;-65
2023/02/28 03:14:22;;;;;;;8.40;4.50;;;;;;;0.02;54.64;101782.98;107708;1256;72326;-64
2023/02/28 03:17:29;;;;;;;7.40;4.50;;;;;;;0.11;54.67;101784.03;107799;1256;73770;-65
2023/02/28 03:20:21;;;;;;;6.20;4.10;;;;;;;0.18;54.59;101780.33;107963;1258;61207;-64
2023/02/28 03:23:00;;;;;;;8.30;4.50;;;;;;;0.19;54.49;101785.70;108006;1257;61294;-63
2023/02/28 03:25:33;;;;;;;7.70;4.30;;;;;;;0.18;54.31;101786.78;107972;1256;75567;-64
2023/02/28 03:28:10;;;;;;;7.30;4.30;;;;;;;0.16;54.50;101791.92;107916;1256;73616;-66
2023/02/28 03:30:53;;;;;;;8.30;4.60;;;;;;;0.06;54.81;101799.11;107740;1256;73477;-65
2023/02/28 03:33:34;;;;;;;8.50;4.70;;;;;;;0.11;54.80;101804.36;107933;1256;61226;-64
2023/02/28 03:36:06;;;;;;;9.80;4.40;;;;;;;0.20;54.38;101803.05;107959;1256;61226;-64
2023/02/28 03:38:43;;;;;;;6.80;4.30;;;;;;;0.20;54.42;101802.36;107747;1256;72581;-65
2023/02/28 03:41:17;;;;;;;7.80;5.00;;;;;;;0.19;54.54;101803.20;107934;1256;73656;-63
2023/02/28 03:43:58;;;;;;;7.90;4.50;;;;;;;0.18;54.41;101805.37;107954;1260;73474;-64
2023/02/28 03:46:28;;;;;;;8.20;4.70;;;;;;;0.16;54.41;101807.55;107943;1256;61940;-64
2023/02/28 03:49:03;;;;;;;8.40;5.10;;;;;;;0.01;54.50;101805.92;107934;1255;61601;-64
2023/02/28 03:51:32;;;;;;;9.00;5.40;;;;;;;-0.11;54.59;101806.09;107970;1256;74587;-65
2023/02/28 03:54:05;;;;;;;10.20;6.10;;;;;;;-0.19;54.85;101806.63;107995;1256;72948;-64
2023/02/28 03:56:34;;;;;;;8.50;5.40;;;;;;;-0.25;54.98;101806.30;107979;1256;72537;-64
2023/02/28 03:59:14;;;;;;;8.30;5.10;;;;;;;-0.25;55.04;101811.48;108075;1254;61345;-64
2023/02/28 04:01:44;;;;;;;7.90;5.20;;;;;;;-0.25;55.07;101807.39;108080;1254;60095;-64
2023/02/28 04:04:13;;;;;;;10.10;5.60;;;;;;;-0.24;55.25;101805.68;108053;1257;74676;-64
2023/02/28 04:06:43;;;;;;;9.80;5.60;;;;;;;-0.11;55.16;101802.96;107965;1256;72973;-64
2023/02/28 04:09:14;;;;;;;9.20;5.20;;;;;;;-0.17;55.12;101805.03;107977;1256;72569;-64
2023/02/28 04:11:51;;;;;;;8.10;5.30;;;;;;;-0.21;54.99;101804.69;107995;1256;61211;-64
2023/02/28 04:14:20;;;;;;;7.80;4.80;;;;;;;-0.23;55.05;101814.15;108083;1256;59648;-63
2023/02/28 04:16:48;;;;;;;8.30;5.10;;;;;;;-0.22;55.23;101817.59;107990;1255;75013;-65
2023/02/28 04:19:17;;;;;;;8.00;4.40;;;;;;;-0.21;55.09;101815.98;107957;1256;72939;-64
2023/02/28 04:21:50;;;;;;;9.70;4.80;;;;;;;-0.20;55.03;101812.30;107921;1256;71767;-64
2023/02/28 04:24:25;;;;;;;11.10;6.00;;;;;;;-0.19;55.21;101811.85;107972;1256;61258;-64
2023/02/28 04:26:55;;;;;;;7.60;5.00;;;;;;;-0.11;55.13;101815.02;107983;1256;61230;-64
2023/02/28 04:29:28;;;;;;;9.70;5.60;;;;;;;-0.11;55.06;101813.80;107955;1255;74847;-63
2023/02/28 04:32:00;;;;;;;8.70;5.20;;;;;;;-0.17;55.21;101814.23;108002;1256;72670;-65
2023/02/28 04:34:30;;;;;;;10.20;5.90;;;;;;;-0.16;55.45;101818.56;108002;1256;72566;-64
2023/02/28 04:37:00;;;;;;;8.60;5.20;;;;;;;-0.14;55.19;101816.27;107979;1256;61120;-65
2023/02/28 04:39:44;;;;;;;10.20;6.20;;;;;;;-0.14;55.09;101814.46;107949;1256;61132;-63
2023/02/28 04:42:14;;;;;;;9.90;5.20;;;;;;;-0.14;55.19;101814.14;107977;1260;75571;-64
2023/02/28 04:44:42;;;;;;;11.60;6.60;;;;;;;-0.15;55.02;101815.81;107720;1256;74068;-65
2023/02/28 04:47:11;;;;;;;12.60;7.00;;;;;;;-0.15;54.99;101819.00;108002;1256;73261;-65
2023/02/28 04:49:41;;;;;;;12.50;6.50;;;;;;;-0.14;55.15;101818.17;108091;1256;61557;-64
2023/02/28 04:52:10;;;;;;;11.20;6.20;;;;;;;-0.17;55.18;101821.97;107959;1256;61092;-64
2023/02/28 04:54:41;;;;;;;10.90;6.40;;;;;;;-0.20;55.08;101824.87;107992;1256;74660;-63
2023/02/28 04:57:12;;;;;;;9.10;6.10;;;;;;;-0.20;55.39;101823.33;107976;1257;71478;-65
2023/02/28 04:59:43;;;;;;;10.70;6.80;;;;;;;-0.18;55.46;101822.98;107983;1257;71525;-65
2023/02/28 05:02:13;;;;;;;9.10;5.80;;;;;;;-0.15;55.47;101815.15;107962;1259;60481;-64
2023/02/28 05:04:49;;;;;;;9.40;6.10;;;;;;;-0.13;55.26;101818.23;107926;1259;61164;-64
2023/02/28 05:07:47;;;;;;;10.90;7.30;;;;;;;-0.15;55.33;101822.81;107988;1257;74895;-64
2023/02/28 05:10:25;;;;;;;11.10;6.70;;;;;;;-0.14;55.46;101822.02;107959;1257;72776;-65
2023/02/28 05:13:02;;;;;;;11.00;6.90;;;;;;;-0.11;55.48;101823.48;107794;1258;72889;-64
2023/02/28 05:15:33;;;;;;;11.20;6.80;;;;;;;-0.09;55.49;101826.75;107951;1256;61049;-64
2023/02/28 05:18:11;;;;;;;9.60;6.30;;;;;;;-0.09;55.53;101824.48;107996;1256;60055;-64
2023/02/28 05:20:41;;;;;;;9.80;6.40;;;;;;;-0.06;55.43;101829.09;107870;1256;75806;-64
2023/02/28 05:23:12;;;;;;;11.80;6.60;;;;;;;-0.02;55.51;101824.09;107970;1256;72863;-65
2023/02/28 05:25:41;;;;;;;10.00;6.60;;;;;;;-0.01;55.24;101826.45;107627;1257;73895;-65
2023/02/28 05:28:10;;;;;;;10.60;6.40;;;;;;;0.00;55.41;101826.70;107990;1259;61614;-64
2023/02/28 05:30:39;;;;;;;11.70;7.00;;;;;;;0.10;55.11;101832.39;107996;1256;61261;-64
2023/02/28 05:33:10;;;;;;;9.40;6.50;;;;;;;0.20;54.90;101835.50;108014;1256;73683;-64
2023/02/28 05:35:40;;;;;;;10.40;6.80;;;;;;;0.20;54.64;101836.00;108027;1256;72081;-65
2023/02/28 05:38:09;;;;;;;11.00;7.00;;;;;;;0.20;54.49;101835.96;108009;1257;72909;-65
2023/02/28 05:40:40;;;;;;;9.80;6.70;;;;;;;0.14;54.61;101837.35;108010;1256;61780;-64
2023/02/28 05:43:10;;;;;;;9.40;6.50;;;;;;;0.10;54.89;101834.33;107974;1256;61087;-64
2023/02/28 05:45:38;;;;;;;8.50;5.20;;;;;;;0.12;54.93;101834.75;107817;1256;74458;-63
2023/02/28 05:48:07;;;;;;;9.00;5.80;;;;;;;0.14;54.71;101837.88;108006;1256;73109;-64
2023/02/28 05:50:36;;;;;;;7.80;5.30;;;;;;;0.14;54.37;101838.20;108095;1256;72676;-65
2023/02/28 05:53:05;;;;;;;8.70;4.90;;;;;;;0.14;54.39;101839.98;108056;1256;61246;-66
2023/02/28 05:55:35;;;;;;;8.00;5.40;;;;;;;0.16;54.43;101840.96;108078;1255;61247;-65
2023/02/28 05:58:04;;;;;;;7.20;4.90;;;;;;;0.23;54.08;101848.33;107991;1256;74760;-66
2023/02/28 06:00:33;;;;;;;9.80;5.60;;;;;;;0.17;54.07;101846.46;108089;1256;73236;-64
2023/02/28 06:03:01;;;;;;;9.10;5.70;;;;;;;0.22;54.03;101850.75;108024;1256;72685;-64
2023/02/28 06:05:30;;;;;;;8.90;5.20;;;;;;;0.27;54.06;101852.41;108008;1256;61190;-64
2023/02/28 06:07:59;;;;;;;9.00;5.70;;;;;;;0.31;53.74;101853.19;107993;1256;61407;-64
2023/02/28 06:10:28;;;;;;;8.40;5.50;;;;;;;0.31;53.59;101854.54;108003;1257;73922;-65
2023/02/28 06:13:02;;;;;;;7.60;4.90;;;;;;;0.32;53.31;101858.18;108027;1256;72107;-66
2023/02/28 06:15:31;;;;;;;9.10;5.20;;;;;;;0.31;53.04;101860.12;107975;1260;72917;-64
2023/02/28 06:18:02;;;;;;;8.90;5.20;;;;;;;0.31;53.02;101859.80;107967;1256;61212;-65
2023/02/28 06:20:32;;;;;;;9.60;5.60;;;;;;;0.33;52.95;101863.14;107975;1257;61171;-64
2023/02/28 06:23:00;;;;;;;9.30;5.50;;;;;;;0.33;53.39;101862.95;107928;1256;74903;-66
2023/02/28 06:25:30;;;;;;;10.90;5.60;;;;;;;0.31;53.40;101864.73;107971;1256;72971;-65
2023/02/28 06:28:00;;;;;;;9.70;5.70;;;;;;;0.28;53.23;101863.13;107949;1256;72914;-64
2023/02/28 06:30:30;;;;;;;9.50;5.80;;;;;;;0.26;53.23;101862.61;107747;1256;61141;-65
2023/02/28 06:32:59;;;;;;;10.20;5.50;;;;;;;0.28;53.10;101860.79;108015;1256;61127;-64
2023/02/28 06:35:27;;;;;;;12.00;6.30;;;;;;;0.32;53.06;101859.60;107970;1260;74185;-63
2023/02/28 06:37:57;;;;;;;12.80;5.90;;;;;;;0.34;52.87;101858.82;107987;1260;73429;-64
2023/02/28 06:40:26;;;;;;;13.10;6.30;;;;;;;0.36;52.62;101857.39;108003;1256;72888;-65
2023/02/28 06:42:55;;;;;;;10.80;6.40;;;;;;;0.38;52.67;101857.00;107976;1256;61167;-68
2023/02/28 06:45:25;;;;;;;11.90;6.90;;;;;;;0.39;52.21;101855.15;107933;1257;59462;-64
2023/02/28 06:47:56;;;;;;;10.20;6.40;;;;;;;0.40;52.31;101855.75;107980;1260;74874;-64
2023/02/28 06:50:24;;;;;;;11.60;6.60;;;;;;;0.41;52.37;101855.80;107995;1257;71865;-64
2023/02/28 06:52:55;;;;;;;11.40;7.40;;;;;;;0.46;52.34;101857.32;107933;1256;72959;-65
2023/02/28 06:55:24;;;;;;;12.60;7.50;;;;;;;0.54;52.38;101858.00;107906;1259;62962;-65
2023/02/28 06:57:54;;;;;;;12.50;7.10;;;;;;;0.59;52.15;101855.27;107988;1256;61315;-64
2023/02/28 07:00:24;;;;;;;9.50;6.10;;;;;;;0.64;52.19;101861.67;108039;1256;74898;-64
2023/02/28 07:02:54;;;;;;;12.40;6.10;;;;;;;0.65;52.10;101859.63;108032;1256;74072;-64
2023/02/28 07:05:23;;;;;;;9.80;6.50;;;;;;;0.63;51.99;101859.64;108006;1259;73863;-64
2023/02/28 07:07:54;;;;;;;11.60;6.70;;;;;;;0.61;51.81;101865.63;108003;1258;61246;-64
2023/02/28 07:10:23;;;;;;;9.90;5.90;;;;;;;0.57;51.84;101860.42;108070;1257;61294;-63
2023/02/28 07:12:57;;;;;;;12.40;7.40;;;;;;;0.51;52.11;101856.50;107981;1256;75695;-65
2023/02/28 07:15:25;;;;;;;9.60;5.90;;;;;;;0.48;52.15;101861.05;108037;1259;73444;-65
2023/02/28 07:17:54;;;;;;;9.60;5.90;;;;;;;0.46;52.37;101855.59;107941;1256;73592;-65
2023/02/28 07:20:23;;;;;;;8.40;5.10;;;;;;;0.47;52.44;101851.33;107985;1256;62178;-64
2023/02/28 07:22:56;;;;;;;9.50;7.00;;;;;;;0.49;52.70;101847.95;108003;1257;60468;-65
2023/02/28 07:25:27;;;;;;;12.00;6.80;;;;;;;0.54;52.53;101855.02;107991;1257;75656;-64
2023/02/28 07:27:55;;;;;;;10.20;6.20;;;;;;;0.61;52.56;101856.73;108018;1256;73018;-64
2023/02/28 07:30:24;;;;;;;9.60;6.40;;;;;;;0.66;52.85;101852.14;108008;1255;73898;-64
2023/02/28 07:32:54;;;;;;;10.90;7.20;;;;;;;0.77;52.74;101853.52;107928;1257;61211;-64
2023/02/28 07:35:24;;;;;;;;;;;;;;;0.79;52.27;101852.37;108023;1257;61312;-65
2023/02/28 07:37:53;;;;;;;13.10;7.50;;;;;;;0.77;52.53;101847.73;108047;1258;75655;-64
2023/02/28 07:40:22;;;;;;;11.60;6.80;;;;;;;0.77;52.56;101846.29;108107;1257;71686;-65
2023/02/28 07:42:50;;;;;;;10.40;6.00;;;;;;;0.77;52.53;101852.23;108073;1255;74244;-64
2023/02/28 07:45:19;;;;;;;12.00;7.70;;;;;;;0.73;52.58;101851.30;108108;1255;62233;-65
2023/02/28 07:47:47;;;;;;;15.40;8.50;;;;;;;0.72;52.66;101853.66;108056;1255;61125;-64
2023/02/28 08:03:05;;;;;;;14.00;8.30;;;;;;;0.98;52.40;101854.52;105566;1282;615494;-71
2023/02/28 08:05:38;;;;;;;11.70;6.80;;;;;;;1.33;51.54;101857.68;103445;1264;5200494;-71
2023/02/28 08:08:07;;;;;;;11.70;6.80;;;;;;;1.31;51.18;101857.45;107370;1266;72465;-70
2023/02/28 08:10:53;;;;;;;10.20;7.40;;;;;;;1.22;51.32;101855.34;107342;1266;71717;-72
2023/02/28 08:13:24;;;;;;;10.30;7.30;;;;;;;1.19;50.88;101856.38;107361;1264;73116;-71
2023/02/28 08:15:55;;;;;;;11.10;7.40;;;;;;;1.13;50.76;101858.55;107403;1266;59616;-72
2023/02/28 08:18:24;;;;;;;13.10;8.00;;;;;;;1.08;50.85;101857.69;107341;1265;60558;-71
2023/02/28 08:20:53;;;;;;;13.40;8.50;;;;;;;1.05;51.32;101856.67;107330;1266;72723;-71
2023/02/28 08:23:23;;;;;;;11.50;7.20;;;;;;;1.03;51.26;101854.20;85080;1268;10001806;-70
2023/02/28 08:25:55;;;;;;;;;;;;;;;1.05;51.20;101854.36;107597;1266;74143;-71
2023/02/28 08:28:26;;;;;;;9.90;6.80;;;;;;;1.07;51.40;101852.72;107424;1263;73014;-71
2023/02/28 08:30:55;;;;;;;11.60;7.30;;;;;;;1.12;51.19;101850.66;107905;1265;59851;-72
2023/02/28 08:33:24;;;;;;;12.20;7.90;;;;;;;1.15;51.17;101855.50;107371;1265;59963;-71
2023/02/28 08:35:54;;;;;;;12.30;8.20;;;;;;;1.21;50.83;101851.27;108470;1261;72136;-70
2023/02/28 08:38:23;;;;;;;11.10;7.70;;;;;;;1.29;50.59;101853.73;108722;1261;74090;-70
2023/02/28 08:40:58;;;;;;;10.60;6.90;;;;;;;1.35;50.45;101849.89;107932;1261;73101;-71
2023/02/28 08:43:28;;;;;;;10.20;6.50;;;;;;;1.41;50.17;101854.73;107485;1261;59538;-70
2023/02/28 08:45:56;;;;;;;10.60;7.00;;;;;;;1.40;50.23;101851.01;107411;1260;59592;-71
2023/02/28 08:48:26;;;;;;;12.20;7.50;;;;;;;1.35;50.08;101851.49;107394;1266;74103;-71
2023/02/28 08:50:59;;;;;;;11.20;7.60;;;;;;;1.34;50.76;101851.40;107572;1263;71266;-71
2023/02/28 08:53:37;;;;;;;13.50;8.10;;;;;;;1.35;51.00;101849.06;107462;1263;73917;-70
2023/02/28 08:56:13;;;;;;;12.10;7.70;;;;;;;1.38;51.10;101844.73;108039;1253;60381;-71
2023/02/28 08:58:43;;;;;;;12.00;7.30;;;;;;;1.47;50.91;101844.25;107986;1256;61280;-70
2023/02/28 09:01:13;;;;;;;9.70;6.50;;;;;;;1.56;50.41;101846.27;107819;1255;72066;-71
2023/02/28 09:03:43;;;;;;;11.50;7.40;;;;;;;1.53;50.08;101843.98;108145;1253;73079;-70
2023/02/28 09:06:13;;;;;;;10.20;7.20;;;;;;;1.47;50.29;101840.57;108016;1257;72631;-71
2023/02/28 09:08:42;;;;;;;11.70;8.20;;;;;;;1.42;49.97;101844.09;108070;1253;59691;-69
2023/02/28 09:11:12;;;;;;;13.30;8.20;;;;;;;1.42;50.31;101848.98;107989;1254;59913;-70
2023/02/28 09:13:42;;;;;;;11.70;8.10;;;;;;;1.47;50.55;101841.79;107989;1253;72571;-71
2023/02/28 09:16:13;;;;;;;12.40;8.20;;;;;;;1.61;50.60;101847.30;107840;1253;71988;-70
2023/02/28 09:18:42;;;;;;;12.30;8.00;;;;;;;1.73;50.02;101848.02;107885;1253;72730;-71
2023/02/28 09:21:15;;;;;;;10.90;7.50;;;;;;;1.72;49.74;101844.36;108182;1253;60024;-70
2023/02/28 09:23:44;;;;;;;11.80;7.60;;;;;;;1.64;49.47;101837.14;108221;1254;60932;-71
2023/02/28 09:26:24;;;;;;;11.20;7.40;;;;;;;1.55;49.68;101830.20;108306;1253;73746;-71
2023/02/28 09:28:53;;;;;;;11.60;7.60;;;;;;;1.59;49.72;101831.71;108519;1253;70797;-71
2023/02/28 09:31:24;;;;;;;11.50;7.90;;;;;;;1.66;49.53;101832.75;107992;1253;71948;-71
2023/02/28 09:33:54;;;;;;;10.70;7.00;;;;;;;1.75;49.58;101828.76;108017;1253;59506;-71
2023/02/28 09:36:23;;;;;;;13.30;7.80;;;;;;;1.85;49.56;101825.60;108021;1253;60600;-70
2023/02/28 09:39:09;;;;;;;11.00;7.00;;;;;;;1.99;49.31;101823.50;108034;1259;73267;-71
2023/02/28 09:41:50;;;;;;;11.90;7.60;;;;;;;2.04;48.82;101821.14;108078;1253;72199;-70
2023/02/28 09:44:42;;;;;;;13.50;8.10;;;;;;;2.03;48.48;101813.89;107844;1254;72862;-69
2023/02/28 09:47:28;;;;;;;10.90;7.00;;;;;;;2.11;48.32;101811.77;107988;1259;60826;-69
2023/02/28 09:49:58;;;;;;;12.30;7.40;;;;;;;2.20;48.20;101810.88;108068;1258;59385;-70
2023/02/28 09:52:30;;;;;;;15.40;7.30;;;;;;;2.29;48.13;101809.33;107976;1254;72742;-70
2023/02/28 09:55:23;;;;;;;10.20;7.00;;;;;;;2.40;48.15;101807.57;108085;1253;71922;-69
2023/02/28 09:57:53;;;;;;;13.40;8.10;;;;;;;2.45;47.65;101796.36;108186;1254;73861;-69
2023/02/28 10:00:36;;;;;;;12.00;7.60;;;;;;;2.48;47.80;101791.91;107982;1253;60143;-70
2023/02/28 10:03:26;;;;;;;13.10;7.30;;;;;;;2.48;47.26;101791.86;108015;1254;59641;-70
2023/02/28 10:06:16;;;;;;;11.00;7.30;;;;;;;2.38;47.35;101782.59;108041;1253;73259;-71
2023/02/28 10:08:51;;;;;;;9.90;6.90;;;;;;;2.39;47.61;101780.27;108034;1257;73649;-68
2023/02/28 10:11:23;;;;;;;12.40;7.10;;;;;;;2.38;47.67;101783.38;108070;1257;73957;-69
2023/02/28 10:14:02;;;;;;;12.40;7.60;;;;;;;2.34;47.58;101779.55;107807;1255;59724;-69
2023/02/28 10:16:35;;;;;;;11.60;6.70;;;;;;;2.38;47.68;101774.68;108022;1254;61298;-68
2023/02/28 10:19:15;;;;;;;11.00;6.60;;;;;;;2.46;48.08;101773.77;107941;1254;71999;-69
2023/02/28 10:22:00;;;;;;;12.00;7.40;;;;;;;2.55;47.91;101769.97;108151;1254;71707;-69
2023/02/28 10:24:33;;;;;;;11.60;7.60;;;;;;;2.59;47.15;101769.67;108029;1254;72606;-68
2023/02/28 10:27:12;;;;;;;12.60;8.30;;;;;;;2.54;47.08;101771.59;108019;1259;60453;-67
2023/02/28 10:29:52;;;;;;;11.10;7.60;;;;;;;2.50;47.19;101769.80;108267;1254;60173;-69
2023/02/28 10:32:31;;;;;;;11.80;7.10;;;;;;;2.49;47.49;101770.59;108171;1254;73438;-70
2023/02/28 10:35:08;;;;;;;11.10;7.50;;;;;;;2.47;47.12;101772.39;108021;1255;73858;-69
2023/02/28 10:37:38;;;;;;;12.90;8.40;;;;;;;2.48;47.15;101770.61;108224;1257;73895;-69
2023/02/28 10:40:35;;;;;;;13.10;8.80;;;;;;;2.50;46.92;101762.29;108184;1259;60769;-69
2023/02/28 10:43:14;;;;;;;11.60;7.40;;;;;;;2.55;47.26;101760.61;108082;1254;60576;-69
2023/02/28 10:46:02;;;;;;;12.80;8.40;;;;;;;2.63;47.00;101757.26;108063;1253;72497;-69
2023/02/28 10:48:39;;;;;;;11.80;8.00;;;;;;;2.69;46.51;101748.71;107976;1255;71873;-68
2023/02/28 10:51:12;;;;;;;11.70;7.50;;;;;;;2.72;46.36;101753.20;108125;1254;72905;-68
2023/02/28 10:53:42;;;;;;;13.30;8.60;;;;;;;2.73;46.18;101752.21;108183;1254;60793;-68
2023/02/28 10:56:28;;;;;;;10.40;7.80;;;;;;;2.77;46.17;101747.53;108139;1258;60383;-68
2023/02/28 10:59:15;;;;;;;12.10;8.10;;;;;;;2.79;46.17;101743.66;108122;1255;72083;-69
2023/02/28 11:01:46;;;;;;;11.10;7.50;;;;;;;2.81;46.16;101737.13;108210;1254;71770;-68
2023/02/28 11:04:21;;;;;;;12.10;7.40;;;;;;;2.85;45.96;101742.45;108069;1258;72926;-69
2023/02/28 11:07:04;;;;;;;11.00;7.60;;;;;;;2.83;45.97;101738.42;108181;1257;60607;-69
2023/02/28 11:09:39;;;;;;;11.10;8.20;;;;;;;2.84;46.27;101733.93;108211;1254;59675;-69
2023/02/28 11:12:22;;;;;;;12.50;8.70;;;;;;;2.87;46.39;101739.73;108022;1254;74013;-69
2023/02/28 11:14:59;;;;;;;12.10;7.70;;;;;;;2.91;46.01;101735.59;108154;1258;73538;-70
2023/02/28 11:17:29;;;;;;;11.50;7.50;;;;;;;2.94;45.69;101727.30;108159;1255;72244;-68
2023/02/28 11:20:07;;;;;;;10.70;7.70;;;;;;;2.97;45.71;101723.80;108167;1253;59675;-70
2023/02/28 11:22:38;;;;;;;10.40;7.00;;;;;;;2.96;45.66;101720.94;108004;1255;59403;-69
2023/02/28 11:25:27;;;;;;;9.30;6.90;;;;;;;2.99;45.72;101713.55;108246;1253;73277;-69
2023/02/28 11:28:06;;;;;;;10.10;7.00;;;;;;;3.06;45.38;101713.66;108176;1253;73976;-68
2023/02/28 11:30:39;;;;;;;10.10;6.10;;;;;;;3.11;45.08;101710.81;108179;1254;73954;-69
2023/02/28 11:33:27;;;;;;;12.10;7.00;;;;;;;3.12;45.21;101711.39;108189;1260;59893;-68
2023/02/28 11:36:04;;;;;;;11.00;7.50;;;;;;;3.17;44.85;101709.70;108060;1254;60733;-69
2023/02/28 11:38:34;;;;;;;11.30;7.70;;;;;;;3.22;44.71;101702.71;108234;1258;73215;-68
2023/02/28 11:41:09;;;;;;;10.80;6.80;;;;;;;3.28;44.68;101704.84;108081;1255;72970;-69
2023/02/28 11:43:56;;;;;;;8.70;6.30;;;;;;;3.34;44.54;101699.76;108126;1259;72385;-69
2023/02/28 11:46:35;;;;;;;9.50;6.60;;;;;;;3.39;44.24;101702.88;108235;1254;60534;-68
2023/02/28 11:49:13;;;;;;;9.70;7.00;;;;;;;3.43;44.21;101698.14;108205;1253;59989;-69
2023/02/28 11:52:08;;;;;;;9.00;5.90;;;;;;;3.47;44.09;101704.66;108189;1254;73269;-69
2023/02/28 11:55:01;;;;;;;9.00;5.70;;;;;;;3.50;43.68;101702.95;108299;1254;73164;-69
2023/02/28 11:58:01;;;;;;;10.20;5.80;;;;;;;3.49;43.42;101699.03;108215;1257;71822;-70
2023/02/28 12:00:40;;;;;;;10.60;6.40;;;;;;;3.53;43.51;101687.46;108200;1258;59770;-68
2023/02/28 12:03:41;;;;;;;9.90;6.90;;;;;;;3.58;43.57;101688.80;108191;1254;61270;-69